Bement, Illinois
Current Conditions -  °F | °C
As of 5:54 PM on Friday 28 Nov 2014 (Local Time) from KDEC Reporting Station
Clear Clear  
Wind Chill: -2°   Ceiling: Unl
Heat Index:   Visibility: 10mi
Dew Point: -1°   Wind: 10mph
Humidity: 82%   Direction: 160°SSE
Pressure: 29.99"   Gusts: NA
Location:  39.92°N, 88.57°W
Report Text: KDEC 282354Z 16009KT 10SM CLR 02/M01 A2999 RMK AO2 SLP164 T00221006 10039 20011 55006
Loading
Personal Weather Stations






























Interactive Weather Map New forecast layout! Learn more

10-Day Weather Forecast

Advertisements
Track Severe Weather on mobile